sensor_id;sensor_type;location;lat;lon;timestamp;P1;durP1;ratioP1;P2;durP2;ratioP2
22644;SDS011;11489;50.834;6.752;2022-10-26T00:02:05;4.63;;;1.50;;
22644;SDS011;11489;50.834;6.752;2022-10-26T00:04:32;11.13;;;1.80;;
22644;SDS011;11489;50.834;6.752;2022-10-26T00:06:57;3.90;;;1.80;;
22644;SDS011;11489;50.834;6.752;2022-10-26T00:09:23;4.82;;;2.33;;
22644;SDS011;11489;50.834;6.752;2022-10-26T00:11:49;6.35;;;1.90;;
22644;SDS011;11489;50.834;6.752;2022-10-26T00:14:14;3.95;;;1.90;;
22644;SDS011;11489;50.834;6.752;2022-10-26T00:16:40;5.70;;;2.28;;
22644;SDS011;11489;50.834;6.752;2022-10-26T00:19:05;3.08;;;1.88;;
22644;SDS011;11489;50.834;6.752;2022-10-26T00:21:31;5.40;;;1.92;;
22644;SDS011;11489;50.834;6.752;2022-10-26T00:23:58;5.05;;;1.80;;
22644;SDS011;11489;50.834;6.752;2022-10-26T00:26:24;3.35;;;1.70;;
22644;SDS011;11489;50.834;6.752;2022-10-26T00:28:51;5.82;;;1.90;;
22644;SDS011;11489;50.834;6.752;2022-10-26T00:31:18;6.28;;;2.20;;
22644;SDS011;11489;50.834;6.752;2022-10-26T00:36:30;4.90;;;1.80;;
22644;SDS011;11489;50.834;6.752;2022-10-26T00:38:56;6.43;;;2.13;;
22644;SDS011;11489;50.834;6.752;2022-10-26T00:41:24;5.75;;;1.83;;
22644;SDS011;11489;50.834;6.752;2022-10-26T00:43:53;4.47;;;1.70;;
22644;SDS011;11489;50.834;6.752;2022-10-26T00:46:29;4.13;;;1.77;;
22644;SDS011;11489;50.834;6.752;2022-10-26T00:49:09;4.70;;;1.60;;
22644;SDS011;11489;50.834;6.752;2022-10-26T00:51:40;3.13;;;1.60;;
22644;SDS011;11489;50.834;6.752;2022-10-26T00:54:10;5.40;;;1.92;;
22644;SDS011;11489;50.834;6.752;2022-10-26T00:56:39;6.30;;;2.15;;
22644;SDS011;11489;50.834;6.752;2022-10-26T00:59:07;4.55;;;1.83;;
22644;SDS011;11489;50.834;6.752;2022-10-26T01:01:35;2.70;;;1.70;;
22644;SDS011;11489;50.834;6.752;2022-10-26T01:04:04;3.88;;;1.67;;
22644;SDS011;11489;50.834;6.752;2022-10-26T01:06:30;9.02;;;1.83;;
22644;SDS011;11489;50.834;6.752;2022-10-26T01:08:57;3.95;;;1.63;;
22644;SDS011;11489;50.834;6.752;2022-10-26T01:11:23;6.80;;;1.95;;
22644;SDS011;11489;50.834;6.752;2022-10-26T01:13:49;2.65;;;1.80;;
22644;SDS011;11489;50.834;6.752;2022-10-26T01:24:45;3.40;;;1.63;;
22644;SDS011;11489;50.834;6.752;2022-10-26T01:27:23;3.25;;;1.70;;
22644;SDS011;11489;50.834;6.752;2022-10-26T01:32:39;3.20;;;1.80;;
22644;SDS011;11489;50.834;6.752;2022-10-26T01:35:09;3.25;;;1.60;;
22644;SDS011;11489;50.834;6.752;2022-10-26T01:37:53;5.57;;;2.08;;
22644;SDS011;11489;50.834;6.752;2022-10-26T01:40:46;4.75;;;1.95;;
22644;SDS011;11489;50.834;6.752;2022-10-26T01:43:18;4.80;;;1.77;;
22644;SDS011;11489;50.834;6.752;2022-10-26T01:45:45;5.78;;;1.80;;
22644;SDS011;11489;50.834;6.752;2022-10-26T01:48:13;3.08;;;1.83;;
22644;SDS011;11489;50.834;6.752;2022-10-26T01:50:43;6.25;;;1.90;;
22644;SDS011;11489;50.834;6.752;2022-10-26T01:53:15;6.57;;;1.65;;
22644;SDS011;11489;50.834;6.752;2022-10-26T02:06:53;3.63;;;1.65;;
22644;SDS011;11489;50.834;6.752;2022-10-26T02:09:32;7.82;;;1.85;;
22644;SDS011;11489;50.834;6.752;2022-10-26T02:11:59;3.80;;;1.83;;
22644;SDS011;11489;50.834;6.752;2022-10-26T02:17:11;2.92;;;1.65;;
22644;SDS011;11489;50.834;6.752;2022-10-26T02:19:43;4.60;;;2.00;;
22644;SDS011;11489;50.834;6.752;2022-10-26T02:22:13;2.75;;;1.65;;
22644;SDS011;11489;50.834;6.752;2022-10-26T02:24:40;4.45;;;1.60;;
22644;SDS011;11489;50.834;6.752;2022-10-26T02:27:08;8.25;;;1.70;;
22644;SDS011;11489;50.834;6.752;2022-10-26T02:29:39;3.28;;;1.60;;
22644;SDS011;11489;50.834;6.752;2022-10-26T02:32:07;4.15;;;1.98;;
22644;SDS011;11489;50.834;6.752;2022-10-26T02:34:34;3.40;;;1.70;;
22644;SDS011;11489;50.834;6.752;2022-10-26T02:37:03;6.32;;;2.00;;
22644;SDS011;11489;50.834;6.752;2022-10-26T02:39:30;6.78;;;1.63;;
22644;SDS011;11489;50.834;6.752;2022-10-26T02:41:59;3.78;;;1.80;;
22644;SDS011;11489;50.834;6.752;2022-10-26T02:44:33;3.33;;;1.60;;
22644;SDS011;11489;50.834;6.752;2022-10-26T02:47:04;2.50;;;1.50;;
22644;SDS011;11489;50.834;6.752;2022-10-26T02:49:29;1.90;;;1.40;;
22644;SDS011;11489;50.834;6.752;2022-10-26T02:56:59;3.67;;;1.88;;
22644;SDS011;11489;50.834;6.752;2022-10-26T02:59:31;4.68;;;1.58;;
22644;SDS011;11489;50.834;6.752;2022-10-26T03:02:00;1.70;;;1.60;;
22644;SDS011;11489;50.834;6.752;2022-10-26T03:04:30;2.10;;;1.33;;
22644;SDS011;11489;50.834;6.752;2022-10-26T03:06:57;2.38;;;1.40;;
22644;SDS011;11489;50.834;6.752;2022-10-26T03:09:23;7.28;;;1.60;;
22644;SDS011;11489;50.834;6.752;2022-10-26T03:11:49;3.17;;;1.58;;
22644;SDS011;11489;50.834;6.752;2022-10-26T03:14:14;2.72;;;1.30;;
22644;SDS011;11489;50.834;6.752;2022-10-26T03:16:40;3.22;;;1.60;;
22644;SDS011;11489;50.834;6.752;2022-10-26T03:19:06;4.68;;;1.48;;
22644;SDS011;11489;50.834;6.752;2022-10-26T03:21:31;3.72;;;1.63;;
22644;SDS011;11489;50.834;6.752;2022-10-26T03:23:57;5.38;;;1.45;;
22644;SDS011;11489;50.834;6.752;2022-10-26T03:26:22;3.53;;;1.50;;
22644;SDS011;11489;50.834;6.752;2022-10-26T03:28:48;4.18;;;1.30;;
22644;SDS011;11489;50.834;6.752;2022-10-26T03:31:14;4.75;;;1.50;;
22644;SDS011;11489;50.834;6.752;2022-10-26T03:33:39;3.80;;;1.45;;
22644;SDS011;11489;50.834;6.752;2022-10-26T03:36:05;6.43;;;1.38;;
22644;SDS011;11489;50.834;6.752;2022-10-26T03:38:31;4.25;;;1.40;;
22644;SDS011;11489;50.834;6.752;2022-10-26T03:40:57;4.72;;;1.35;;
22644;SDS011;11489;50.834;6.752;2022-10-26T03:43:22;2.88;;;1.20;;
22644;SDS011;11489;50.834;6.752;2022-10-26T03:45:48;3.08;;;1.60;;
22644;SDS011;11489;50.834;6.752;2022-10-26T03:48:14;3.55;;;1.30;;
22644;SDS011;11489;50.834;6.752;2022-10-26T03:50:39;5.20;;;1.63;;
22644;SDS011;11489;50.834;6.752;2022-10-26T03:53:05;5.05;;;1.55;;
22644;SDS011;11489;50.834;6.752;2022-10-26T03:55:31;6.25;;;1.50;;
22644;SDS011;11489;50.834;6.752;2022-10-26T03:57:57;4.65;;;1.10;;
22644;SDS011;11489;50.834;6.752;2022-10-26T04:00:22;4.10;;;1.40;;
22644;SDS011;11489;50.834;6.752;2022-10-26T04:02:54;2.72;;;1.17;;
22644;SDS011;11489;50.834;6.752;2022-10-26T04:05:22;3.63;;;1.55;;
22644;SDS011;11489;50.834;6.752;2022-10-26T04:07:55;3.38;;;1.30;;
22644;SDS011;11489;50.834;6.752;2022-10-26T04:10:22;3.17;;;1.45;;
22644;SDS011;11489;50.834;6.752;2022-10-26T04:12:49;3.63;;;1.55;;
22644;SDS011;11489;50.834;6.752;2022-10-26T04:15:16;5.88;;;1.42;;
22644;SDS011;11489;50.834;6.752;2022-10-26T04:17:42;1.85;;;1.23;;
22644;SDS011;11489;50.834;6.752;2022-10-26T04:20:07;2.58;;;1.40;;
22644;SDS011;11489;50.834;6.752;2022-10-26T04:22:34;2.92;;;1.05;;
22644;SDS011;11489;50.834;6.752;2022-10-26T04:25:01;3.22;;;1.35;;
22644;SDS011;11489;50.834;6.752;2022-10-26T04:27:27;5.25;;;1.50;;
22644;SDS011;11489;50.834;6.752;2022-10-26T04:29:53;3.60;;;1.30;;
22644;SDS011;11489;50.834;6.752;2022-10-26T04:32:18;2.88;;;1.10;;
22644;SDS011;11489;50.834;6.752;2022-10-26T04:34:44;4.28;;;1.70;;
22644;SDS011;11489;50.834;6.752;2022-10-26T04:37:10;4.55;;;1.40;;
22644;SDS011;11489;50.834;6.752;2022-10-26T04:39:35;3.85;;;1.20;;
22644;SDS011;11489;50.834;6.752;2022-10-26T04:42:01;2.30;;;1.35;;
22644;SDS011;11489;50.834;6.752;2022-10-26T04:44:26;2.30;;;1.17;;
22644;SDS011;11489;50.834;6.752;2022-10-26T04:46:52;4.45;;;1.40;;
22644;SDS011;11489;50.834;6.752;2022-10-26T04:49:18;4.30;;;1.30;;
22644;SDS011;11489;50.834;6.752;2022-10-26T04:51:43;5.43;;;1.33;;
22644;SDS011;11489;50.834;6.752;2022-10-26T04:54:09;5.72;;;2.08;;
22644;SDS011;11489;50.834;6.752;2022-10-26T04:56:35;4.75;;;1.58;;
22644;SDS011;11489;50.834;6.752;2022-10-26T04:59:00;3.55;;;1.38;;
22644;SDS011;11489;50.834;6.752;2022-10-26T05:01:26;4.85;;;1.40;;
22644;SDS011;11489;50.834;6.752;2022-10-26T05:03:52;6.32;;;1.85;;
22644;SDS011;11489;50.834;6.752;2022-10-26T05:06:18;2.95;;;1.40;;
22644;SDS011;11489;50.834;6.752;2022-10-26T05:08:44;4.28;;;1.58;;
22644;SDS011;11489;50.834;6.752;2022-10-26T05:11:10;3.00;;;1.30;;
22644;SDS011;11489;50.834;6.752;2022-10-26T05:13:36;3.08;;;1.42;;
22644;SDS011;11489;50.834;6.752;2022-10-26T05:16:01;2.13;;;1.30;;
22644;SDS011;11489;50.834;6.752;2022-10-26T05:18:27;3.47;;;1.10;;
22644;SDS011;11489;50.834;6.752;2022-10-26T05:20:53;4.40;;;1.50;;
22644;SDS011;11489;50.834;6.752;2022-10-26T05:23:19;5.38;;;1.38;;
22644;SDS011;11489;50.834;6.752;2022-10-26T05:25:45;2.72;;;1.20;;
22644;SDS011;11489;50.834;6.752;2022-10-26T05:28:12;2.45;;;1.40;;
22644;SDS011;11489;50.834;6.752;2022-10-26T05:30:42;5.45;;;1.73;;
22644;SDS011;11489;50.834;6.752;2022-10-26T05:33:09;3.97;;;1.40;;
22644;SDS011;11489;50.834;6.752;2022-10-26T05:35:36;4.50;;;1.40;;
22644;SDS011;11489;50.834;6.752;2022-10-26T05:38:06;3.75;;;1.45;;
22644;SDS011;11489;50.834;6.752;2022-10-26T05:40:32;5.25;;;1.35;;
22644;SDS011;11489;50.834;6.752;2022-10-26T05:42:59;3.55;;;1.40;;
22644;SDS011;11489;50.834;6.752;2022-10-26T05:45:26;3.28;;;1.38;;
22644;SDS011;11489;50.834;6.752;2022-10-26T05:47:52;3.47;;;1.38;;
22644;SDS011;11489;50.834;6.752;2022-10-26T05:50:17;6.05;;;1.70;;
22644;SDS011;11489;50.834;6.752;2022-10-26T05:52:44;4.22;;;1.48;;
22644;SDS011;11489;50.834;6.752;2022-10-26T05:55:11;3.58;;;1.55;;
22644;SDS011;11489;50.834;6.752;2022-10-26T05:57:39;4.47;;;1.83;;
22644;SDS011;11489;50.834;6.752;2022-10-26T06:00:06;3.15;;;1.50;;
22644;SDS011;11489;50.834;6.752;2022-10-26T06:02:43;7.78;;;1.80;;
22644;SDS011;11489;50.834;6.752;2022-10-26T06:05:30;2.95;;;1.50;;
22644;SDS011;11489;50.834;6.752;2022-10-26T06:08:01;3.05;;;1.52;;
22644;SDS011;11489;50.834;6.752;2022-10-26T06:10:27;3.25;;;1.60;;
22644;SDS011;11489;50.834;6.752;2022-10-26T06:12:53;7.43;;;1.65;;
22644;SDS011;11489;50.834;6.752;2022-10-26T06:15:19;3.65;;;1.70;;
22644;SDS011;11489;50.834;6.752;2022-10-26T06:17:53;2.55;;;1.63;;
22644;SDS011;11489;50.834;6.752;2022-10-26T06:21:09;2.90;;;1.67;;
22644;SDS011;11489;50.834;6.752;2022-10-26T06:26:34;3.40;;;1.63;;
22644;SDS011;11489;50.834;6.752;2022-10-26T06:29:16;5.05;;;1.80;;
22644;SDS011;11489;50.834;6.752;2022-10-26T06:31:43;5.57;;;2.10;;
22644;SDS011;11489;50.834;6.752;2022-10-26T06:34:10;3.88;;;1.65;;
22644;SDS011;11489;50.834;6.752;2022-10-26T06:36:37;4.68;;;1.88;;
22644;SDS011;11489;50.834;6.752;2022-10-26T06:39:08;6.43;;;1.67;;
22644;SDS011;11489;50.834;6.752;2022-10-26T06:41:36;9.77;;;2.30;;
22644;SDS011;11489;50.834;6.752;2022-10-26T06:44:02;5.43;;;2.05;;
22644;SDS011;11489;50.834;6.752;2022-10-26T06:46:38;5.28;;;2.25;;
22644;SDS011;11489;50.834;6.752;2022-10-26T06:51:58;6.78;;;2.03;;
22644;SDS011;11489;50.834;6.752;2022-10-26T06:54:46;6.68;;;2.10;;
22644;SDS011;11489;50.834;6.752;2022-10-26T06:57:16;7.50;;;2.40;;
22644;SDS011;11489;50.834;6.752;2022-10-26T06:59:53;6.38;;;2.13;;
22644;SDS011;11489;50.834;6.752;2022-10-26T07:02:24;4.70;;;2.20;;
22644;SDS011;11489;50.834;6.752;2022-10-26T07:04:50;5.57;;;2.22;;
22644;SDS011;11489;50.834;6.752;2022-10-26T07:07:20;5.70;;;2.30;;
22644;SDS011;11489;50.834;6.752;2022-10-26T07:09:47;5.03;;;1.73;;
22644;SDS011;11489;50.834;6.752;2022-10-26T07:12:13;6.07;;;2.20;;
22644;SDS011;11489;50.834;6.752;2022-10-26T07:14:39;3.53;;;2.10;;
22644;SDS011;11489;50.834;6.752;2022-10-26T07:17:05;5.53;;;2.30;;
22644;SDS011;11489;50.834;6.752;2022-10-26T07:19:31;6.15;;;2.13;;
22644;SDS011;11489;50.834;6.752;2022-10-26T07:21:57;5.47;;;2.30;;
22644;SDS011;11489;50.834;6.752;2022-10-26T07:24:24;3.90;;;2.38;;
22644;SDS011;11489;50.834;6.752;2022-10-26T07:26:52;4.72;;;2.33;;
22644;SDS011;11489;50.834;6.752;2022-10-26T07:29:19;7.45;;;2.60;;
22644;SDS011;11489;50.834;6.752;2022-10-26T07:31:45;8.80;;;2.65;;
22644;SDS011;11489;50.834;6.752;2022-10-26T07:34:10;5.10;;;2.17;;
22644;SDS011;11489;50.834;6.752;2022-10-26T07:36:36;4.75;;;2.42;;
22644;SDS011;11489;50.834;6.752;2022-10-26T07:39:02;3.65;;;2.38;;
22644;SDS011;11489;50.834;6.752;2022-10-26T07:41:28;3.90;;;2.10;;
22644;SDS011;11489;50.834;6.752;2022-10-26T07:43:54;5.38;;;2.40;;
22644;SDS011;11489;50.834;6.752;2022-10-26T07:46:20;9.27;;;2.17;;
22644;SDS011;11489;50.834;6.752;2022-10-26T07:48:45;5.32;;;2.28;;
22644;SDS011;11489;50.834;6.752;2022-10-26T07:51:11;5.50;;;2.25;;
22644;SDS011;11489;50.834;6.752;2022-10-26T07:53:37;6.90;;;2.65;;
22644;SDS011;11489;50.834;6.752;2022-10-26T07:56:02;5.30;;;2.13;;
22644;SDS011;11489;50.834;6.752;2022-10-26T07:58:28;5.97;;;2.60;;
22644;SDS011;11489;50.834;6.752;2022-10-26T08:00:54;7.30;;;2.60;;
22644;SDS011;11489;50.834;6.752;2022-10-26T08:03:21;9.50;;;2.20;;
22644;SDS011;11489;50.834;6.752;2022-10-26T08:05:47;3.63;;;2.05;;
22644;SDS011;11489;50.834;6.752;2022-10-26T08:08:16;5.15;;;2.10;;
22644;SDS011;11489;50.834;6.752;2022-10-26T08:10:45;5.63;;;2.05;;
22644;SDS011;11489;50.834;6.752;2022-10-26T08:13:11;5.30;;;1.98;;
22644;SDS011;11489;50.834;6.752;2022-10-26T08:15:38;4.80;;;2.38;;
22644;SDS011;11489;50.834;6.752;2022-10-26T08:18:04;4.78;;;2.17;;
22644;SDS011;11489;50.834;6.752;2022-10-26T08:20:30;3.97;;;2.20;;
22644;SDS011;11489;50.834;6.752;2022-10-26T08:22:57;4.60;;;2.03;;
22644;SDS011;11489;50.834;6.752;2022-10-26T08:25:23;6.07;;;1.90;;
22644;SDS011;11489;50.834;6.752;2022-10-26T08:27:49;4.88;;;1.90;;
22644;SDS011;11489;50.834;6.752;2022-10-26T08:30:15;3.42;;;1.60;;
22644;SDS011;11489;50.834;6.752;2022-10-26T08:32:41;3.78;;;1.90;;
22644;SDS011;11489;50.834;6.752;2022-10-26T08:35:07;4.63;;;1.80;;
22644;SDS011;11489;50.834;6.752;2022-10-26T08:37:33;4.75;;;1.80;;
22644;SDS011;11489;50.834;6.752;2022-10-26T08:39:59;4.72;;;1.85;;
22644;SDS011;11489;50.834;6.752;2022-10-26T08:42:30;5.07;;;1.90;;
22644;SDS011;11489;50.834;6.752;2022-10-26T08:47:52;5.28;;;1.83;;
22644;SDS011;11489;50.834;6.752;2022-10-26T08:50:27;2.97;;;1.70;;
22644;SDS011;11489;50.834;6.752;2022-10-26T08:53:07;3.10;;;1.63;;
22644;SDS011;11489;50.834;6.752;2022-10-26T08:55:58;4.57;;;1.70;;
22644;SDS011;11489;50.834;6.752;2022-10-26T08:58:31;2.08;;;1.33;;
22644;SDS011;11489;50.834;6.752;2022-10-26T09:01:02;3.25;;;1.90;;
22644;SDS011;11489;50.834;6.752;2022-10-26T09:03:29;3.33;;;1.70;;
22644;SDS011;11489;50.834;6.752;2022-10-26T09:16:40;5.80;;;1.75;;
22644;SDS011;11489;50.834;6.752;2022-10-26T09:19:31;4.70;;;1.92;;
22644;SDS011;11489;50.834;6.752;2022-10-26T09:24:57;2.95;;;1.92;;
22644;SDS011;11489;50.834;6.752;2022-10-26T09:27:33;3.83;;;1.70;;
22644;SDS011;11489;50.834;6.752;2022-10-26T09:30:18;6.32;;;1.90;;
22644;SDS011;11489;50.834;6.752;2022-10-26T09:32:49;6.45;;;2.33;;
22644;SDS011;11489;50.834;6.752;2022-10-26T09:35:22;6.13;;;1.50;;
22644;SDS011;11489;50.834;6.752;2022-10-26T09:38:02;6.65;;;2.13;;
22644;SDS011;11489;50.834;6.752;2022-10-26T09:45:57;4.65;;;1.60;;
22644;SDS011;11489;50.834;6.752;2022-10-26T09:50:57;4.88;;;1.42;;
22644;SDS011;11489;50.834;6.752;2022-10-26T09:53:24;3.22;;;1.70;;
22644;SDS011;11489;50.834;6.752;2022-10-26T09:55:53;7.00;;;1.65;;
22644;SDS011;11489;50.834;6.752;2022-10-26T09:58:31;6.85;;;1.40;;
22644;SDS011;11489;50.834;6.752;2022-10-26T10:01:01;5.68;;;1.73;;
22644;SDS011;11489;50.834;6.752;2022-10-26T10:03:28;2.28;;;1.27;;
22644;SDS011;11489;50.834;6.752;2022-10-26T10:08:43;2.25;;;1.30;;
22644;SDS011;11489;50.834;6.752;2022-10-26T10:11:38;2.63;;;1.30;;
22644;SDS011;11489;50.834;6.752;2022-10-26T10:14:08;2.38;;;1.20;;
22644;SDS011;11489;50.834;6.752;2022-10-26T10:16:39;2.85;;;1.25;;
22644;SDS011;11489;50.834;6.752;2022-10-26T10:19:09;2.55;;;1.10;;
22644;SDS011;11489;50.834;6.752;2022-10-26T10:21:47;3.03;;;1.23;;
22644;SDS011;11489;50.834;6.752;2022-10-26T10:26:58;4.20;;;1.38;;
22644;SDS011;11489;50.834;6.752;2022-10-26T10:29:26;5.32;;;1.30;;
22644;SDS011;11489;50.834;6.752;2022-10-26T10:32:00;3.45;;;1.00;;
22644;SDS011;11489;50.834;6.752;2022-10-26T10:34:30;2.73;;;1.20;;
22644;SDS011;11489;50.834;6.752;2022-10-26T10:36:57;3.15;;;1.20;;
22644;SDS011;11489;50.834;6.752;2022-10-26T10:41:56;4.28;;;1.10;;
22644;SDS011;11489;50.834;6.752;2022-10-26T10:44:23;2.25;;;1.08;;
22644;SDS011;11489;50.834;6.752;2022-10-26T10:47:03;2.97;;;1.00;;
22644;SDS011;11489;50.834;6.752;2022-10-26T10:49:31;4.72;;;1.23;;
22644;SDS011;11489;50.834;6.752;2022-10-26T10:51:58;2.17;;;0.85;;
22644;SDS011;11489;50.834;6.752;2022-10-26T10:54:28;1.90;;;0.90;;
22644;SDS011;11489;50.834;6.752;2022-10-26T10:56:56;2.75;;;0.90;;
22644;SDS011;11489;50.834;6.752;2022-10-26T11:00:07;3.88;;;0.80;;
22644;SDS011;11489;50.834;6.752;2022-10-26T11:07:54;1.23;;;0.60;;
22644;SDS011;11489;50.834;6.752;2022-10-26T11:10:34;1.17;;;0.65;;
22644;SDS011;11489;50.834;6.752;2022-10-26T11:13:05;2.15;;;0.80;;
22644;SDS011;11489;50.834;6.752;2022-10-26T11:15:39;1.00;;;0.60;;
22644;SDS011;11489;50.834;6.752;2022-10-26T11:18:10;1.00;;;0.60;;
22644;SDS011;11489;50.834;6.752;2022-10-26T11:20:48;0.70;;;0.60;;
22644;SDS011;11489;50.834;6.752;2022-10-26T11:23:25;1.85;;;0.60;;
22644;SDS011;11489;50.834;6.752;2022-10-26T11:26:08;1.27;;;0.60;;
22644;SDS011;11489;50.834;6.752;2022-10-26T11:28:58;1.17;;;0.68;;
22644;SDS011;11489;50.834;6.752;2022-10-26T11:31:30;1.20;;;0.60;;
22644;SDS011;11489;50.834;6.752;2022-10-26T11:34:13;1.92;;;0.60;;
22644;SDS011;11489;50.834;6.752;2022-10-26T11:36:48;1.63;;;0.70;;
22644;SDS011;11489;50.834;6.752;2022-10-26T11:39:24;2.03;;;0.60;;
22644;SDS011;11489;50.834;6.752;2022-10-26T11:42:02;1.23;;;0.70;;
22644;SDS011;11489;50.834;6.752;2022-10-26T11:44:42;2.42;;;0.70;;
22644;SDS011;11489;50.834;6.752;2022-10-26T11:47:17;1.05;;;0.50;;
22644;SDS011;11489;50.834;6.752;2022-10-26T11:50:12;1.52;;;0.50;;
22644;SDS011;11489;50.834;6.752;2022-10-26T11:52:50;1.27;;;0.55;;
22644;SDS011;11489;50.834;6.752;2022-10-26T11:55:24;1.20;;;0.60;;
22644;SDS011;11489;50.834;6.752;2022-10-26T11:57:53;0.50;;;0.40;;
22644;SDS011;11489;50.834;6.752;2022-10-26T12:00:19;0.50;;;0.47;;
22644;SDS011;11489;50.834;6.752;2022-10-26T12:02:48;0.75;;;0.40;;
22644;SDS011;11489;50.834;6.752;2022-10-26T12:05:48;1.33;;;0.65;;
22644;SDS011;11489;50.834;6.752;2022-10-26T12:08:29;1.83;;;0.60;;
22644;SDS011;11489;50.834;6.752;2022-10-26T12:13:49;1.35;;;0.40;;
22644;SDS011;11489;50.834;6.752;2022-10-26T12:16:39;0.65;;;0.40;;
22644;SDS011;11489;50.834;6.752;2022-10-26T12:22:08;0.60;;;0.47;;
22644;SDS011;11489;50.834;6.752;2022-10-26T12:24:42;0.88;;;0.43;;
22644;SDS011;11489;50.834;6.752;2022-10-26T12:27:28;2.05;;;0.75;;
22644;SDS011;11489;50.834;6.752;2022-10-26T12:32:53;0.30;;;0.30;;
22644;SDS011;11489;50.834;6.752;2022-10-26T12:37:52;1.50;;;0.60;;
22644;SDS011;11489;50.834;6.752;2022-10-26T12:45:42;4.00;;;0.60;;
22644;SDS011;11489;50.834;6.752;2022-10-26T12:50:54;0.80;;;0.50;;
22644;SDS011;11489;50.834;6.752;2022-10-26T12:53:19;1.52;;;0.50;;
22644;SDS011;11489;50.834;6.752;2022-10-26T12:55:53;0.80;;;0.52;;
22644;SDS011;11489;50.834;6.752;2022-10-26T13:01:28;3.50;;;0.50;;
22644;SDS011;11489;50.834;6.752;2022-10-26T13:04:19;1.02;;;0.40;;
22644;SDS011;11489;50.834;6.752;2022-10-26T13:09:45;1.23;;;0.57;;
22644;SDS011;11489;50.834;6.752;2022-10-26T13:12:17;0.80;;;0.75;;
22644;SDS011;11489;50.834;6.752;2022-10-26T13:14:53;2.83;;;0.80;;
22644;SDS011;11489;50.834;6.752;2022-10-26T13:17:24;1.85;;;0.60;;
22644;SDS011;11489;50.834;6.752;2022-10-26T13:19:55;1.13;;;0.50;;
22644;SDS011;11489;50.834;6.752;2022-10-26T13:22:23;1.67;;;0.47;;
22644;SDS011;11489;50.834;6.752;2022-10-26T13:25:03;1.30;;;0.40;;
22644;SDS011;11489;50.834;6.752;2022-10-26T13:32:47;0.75;;;0.47;;
22644;SDS011;11489;50.834;6.752;2022-10-26T13:35:19;0.63;;;0.57;;
22644;SDS011;11489;50.834;6.752;2022-10-26T13:37:47;0.73;;;0.50;;
22644;SDS011;11489;50.834;6.752;2022-10-26T13:40:16;0.68;;;0.40;;
22644;SDS011;11489;50.834;6.752;2022-10-26T13:42:45;1.27;;;0.45;;
22644;SDS011;11489;50.834;6.752;2022-10-26T13:45:31;0.90;;;0.50;;
22644;SDS011;11489;50.834;6.752;2022-10-26T13:50:32;1.00;;;0.55;;
22644;SDS011;11489;50.834;6.752;2022-10-26T13:53:06;0.90;;;0.50;;
22644;SDS011;11489;50.834;6.752;2022-10-26T13:55:44;1.08;;;0.60;;
22644;SDS011;11489;50.834;6.752;2022-10-26T13:58:19;2.65;;;0.75;;
22644;SDS011;11489;50.834;6.752;2022-10-26T14:03:50;1.25;;;0.50;;
22644;SDS011;11489;50.834;6.752;2022-10-26T14:06:21;1.30;;;0.60;;
22644;SDS011;11489;50.834;6.752;2022-10-26T14:09:03;1.65;;;0.60;;
22644;SDS011;11489;50.834;6.752;2022-10-26T14:11:42;2.60;;;0.60;;
22644;SDS011;11489;50.834;6.752;2022-10-26T14:14:26;0.80;;;0.50;;
22644;SDS011;11489;50.834;6.752;2022-10-26T14:16:55;4.30;;;0.50;;
22644;SDS011;11489;50.834;6.752;2022-10-26T14:19:28;1.48;;;0.47;;
22644;SDS011;11489;50.834;6.752;2022-10-26T14:22:01;1.38;;;0.50;;
22644;SDS011;11489;50.834;6.752;2022-10-26T14:24:28;0.50;;;0.45;;
22644;SDS011;11489;50.834;6.752;2022-10-26T14:26:55;0.43;;;0.40;;
22644;SDS011;11489;50.834;6.752;2022-10-26T14:29:22;0.30;;;0.30;;
22644;SDS011;11489;50.834;6.752;2022-10-26T14:31:50;0.30;;;0.30;;
22644;SDS011;11489;50.834;6.752;2022-10-26T14:34:17;0.77;;;0.50;;
22644;SDS011;11489;50.834;6.752;2022-10-26T14:36:50;2.05;;;0.70;;
22644;SDS011;11489;50.834;6.752;2022-10-26T14:41:55;0.60;;;0.38;;
22644;SDS011;11489;50.834;6.752;2022-10-26T14:44:23;1.25;;;0.50;;
22644;SDS011;11489;50.834;6.752;2022-10-26T14:46:50;0.80;;;0.30;;
22644;SDS011;11489;50.834;6.752;2022-10-26T14:49:18;0.63;;;0.30;;
22644;SDS011;11489;50.834;6.752;2022-10-26T14:51:45;0.73;;;0.50;;
22644;SDS011;11489;50.834;6.752;2022-10-26T14:54:24;2.22;;;0.40;;
22644;SDS011;11489;50.834;6.752;2022-10-26T14:56:51;1.52;;;0.50;;
22644;SDS011;11489;50.834;6.752;2022-10-26T14:59:19;0.93;;;0.55;;
22644;SDS011;11489;50.834;6.752;2022-10-26T15:04:59;1.60;;;0.68;;
22644;SDS011;11489;50.834;6.752;2022-10-26T15:07:34;0.75;;;0.47;;
22644;SDS011;11489;50.834;6.752;2022-10-26T15:10:02;1.15;;;0.55;;
22644;SDS011;11489;50.834;6.752;2022-10-26T15:12:30;0.98;;;0.43;;
22644;SDS011;11489;50.834;6.752;2022-10-26T15:15:17;2.22;;;0.60;;
22644;SDS011;11489;50.834;6.752;2022-10-26T15:17:49;0.47;;;0.40;;
22644;SDS011;11489;50.834;6.752;2022-10-26T15:20:17;0.82;;;0.47;;
22644;SDS011;11489;50.834;6.752;2022-10-26T15:22:52;0.68;;;0.40;;
22644;SDS011;11489;50.834;6.752;2022-10-26T15:25:20;3.13;;;0.40;;
22644;SDS011;11489;50.834;6.752;2022-10-26T15:27:48;3.53;;;0.50;;
22644;SDS011;11489;50.834;6.752;2022-10-26T15:30:17;0.50;;;0.40;;
22644;SDS011;11489;50.834;6.752;2022-10-26T15:32:48;1.90;;;0.40;;
22644;SDS011;11489;50.834;6.752;2022-10-26T15:37:42;0.47;;;0.40;;
22644;SDS011;11489;50.834;6.752;2022-10-26T15:40:09;1.15;;;0.70;;
22644;SDS011;11489;50.834;6.752;2022-10-26T15:42:35;0.85;;;0.50;;
22644;SDS011;11489;50.834;6.752;2022-10-26T15:45:03;2.00;;;0.77;;
22644;SDS011;11489;50.834;6.752;2022-10-26T15:47:37;0.95;;;0.32;;
22644;SDS011;11489;50.834;6.752;2022-10-26T15:50:03;3.17;;;0.60;;
22644;SDS011;11489;50.834;6.752;2022-10-26T15:52:30;1.42;;;0.52;;
22644;SDS011;11489;50.834;6.752;2022-10-26T15:54:56;1.00;;;0.68;;
22644;SDS011;11489;50.834;6.752;2022-10-26T15:57:21;0.88;;;0.50;;
22644;SDS011;11489;50.834;6.752;2022-10-26T15:59:49;0.50;;;0.40;;
22644;SDS011;11489;50.834;6.752;2022-10-26T16:02:15;0.50;;;0.30;;
22644;SDS011;11489;50.834;6.752;2022-10-26T16:04:41;1.95;;;0.40;;
22644;SDS011;11489;50.834;6.752;2022-10-26T16:07:11;0.90;;;0.40;;
22644;SDS011;11489;50.834;6.752;2022-10-26T16:09:38;0.65;;;0.50;;
22644;SDS011;11489;50.834;6.752;2022-10-26T16:12:07;2.67;;;0.68;;
22644;SDS011;11489;50.834;6.752;2022-10-26T16:14:36;1.70;;;0.60;;
22644;SDS011;11489;50.834;6.752;2022-10-26T16:17:03;2.35;;;0.50;;
22644;SDS011;11489;50.834;6.752;2022-10-26T16:19:29;1.88;;;0.73;;
22644;SDS011;11489;50.834;6.752;2022-10-26T16:21:54;0.55;;;0.47;;
22644;SDS011;11489;50.834;6.752;2022-10-26T16:24:20;1.90;;;0.52;;
22644;SDS011;11489;50.834;6.752;2022-10-26T16:26:46;1.48;;;0.50;;
22644;SDS011;11489;50.834;6.752;2022-10-26T16:29:12;0.93;;;0.57;;
22644;SDS011;11489;50.834;6.752;2022-10-26T16:31:38;0.50;;;0.47;;
22644;SDS011;11489;50.834;6.752;2022-10-26T16:34:03;2.55;;;0.70;;
22644;SDS011;11489;50.834;6.752;2022-10-26T16:36:29;3.90;;;0.60;;
22644;SDS011;11489;50.834;6.752;2022-10-26T16:38:58;1.40;;;0.80;;
22644;SDS011;11489;50.834;6.752;2022-10-26T16:41:23;2.42;;;0.70;;
22644;SDS011;11489;50.834;6.752;2022-10-26T16:43:49;5.00;;;0.70;;
22644;SDS011;11489;50.834;6.752;2022-10-26T16:46:19;1.05;;;0.60;;
22644;SDS011;11489;50.834;6.752;2022-10-26T16:48:46;1.38;;;0.80;;
22644;SDS011;11489;50.834;6.752;2022-10-26T16:51:19;1.35;;;0.82;;
22644;SDS011;11489;50.834;6.752;2022-10-26T16:53:47;3.20;;;0.82;;
22644;SDS011;11489;50.834;6.752;2022-10-26T16:56:15;3.40;;;0.88;;
22644;SDS011;11489;50.834;6.752;2022-10-26T16:58:42;1.25;;;0.70;;
22644;SDS011;11489;50.834;6.752;2022-10-26T17:01:08;0.38;;;0.38;;
22644;SDS011;11489;50.834;6.752;2022-10-26T17:03:36;2.47;;;0.70;;
22644;SDS011;11489;50.834;6.752;2022-10-26T17:06:03;1.45;;;0.70;;